createdAt,value
2023-05-03T00:01:03.419Z,102139.84
2023-05-03T00:03:53.219Z,102135.59
2023-05-03T00:06:40.013Z,102140.91
2023-05-03T00:09:28.215Z,102146.13
2023-05-03T00:12:15.085Z,102148.00
2023-05-03T00:15:01.752Z,102145.41
2023-05-03T00:17:48.587Z,102142.91
2023-05-03T00:20:37.170Z,102147.34
2023-05-03T00:23:23.866Z,102150.88
2023-05-03T00:26:12.020Z,102152.66
2023-05-03T00:28:59.257Z,102149.19
2023-05-03T00:31:46.154Z,102147.50
2023-05-03T00:34:32.835Z,102148.38
2023-05-03T00:37:19.692Z,102146.63
2023-05-03T00:40:08.808Z,102146.66
2023-05-03T00:42:56.769Z,102141.34
2023-05-03T00:45:46.370Z,102147.56
2023-05-03T00:48:32.810Z,102150.22
2023-05-03T00:51:21.911Z,102154.56
2023-05-03T00:54:09.183Z,102149.19
2023-05-03T00:56:57.606Z,102148.41
2023-05-03T00:59:45.420Z,102146.53
2023-05-03T01:02:32.673Z,102144.84
2023-05-03T01:05:19.351Z,102150.19
2023-05-03T01:08:12.558Z,102150.22
2023-05-03T01:11:05.794Z,102147.59
2023-05-03T01:13:57.348Z,102150.19
2023-05-03T01:16:50.996Z,102147.56
2023-05-03T01:19:39.153Z,102155.47
2023-05-03T01:22:34.211Z,102152.00
2023-05-03T01:25:22.273Z,102152.06
2023-05-03T01:28:09.310Z,102154.72
2023-05-03T01:30:57.978Z,102151.31
2023-05-03T01:33:54.865Z,102151.25
2023-05-03T01:36:43.956Z,102162.78
2023-05-03T01:39:38.492Z,102163.75
2023-05-03T01:42:28.930Z,102165.50
2023-05-03T01:45:15.887Z,102161.06
2023-05-03T01:48:02.675Z,102166.38
2023-05-03T01:50:49.312Z,102166.44
2023-05-03T01:53:37.719Z,102161.19
2023-05-03T01:56:24.424Z,102171.78
2023-05-03T01:59:12.517Z,102169.16
2023-05-03T02:01:59.305Z,102167.41
2023-05-03T02:04:46.373Z,102164.78
2023-05-03T02:07:33.083Z,102172.69
2023-05-03T02:10:20.178Z,102163.91
2023-05-03T02:13:06.880Z,102170.16
2023-05-03T02:15:55.618Z,102172.78
2023-05-03T02:18:43.449Z,102170.16
2023-05-03T02:21:30.254Z,102172.75
2023-05-03T02:24:17.698Z,102181.53
2023-05-03T02:27:05.126Z,102173.59
2023-05-03T02:29:51.766Z,102181.50
2023-05-03T02:32:39.933Z,102191.19
2023-05-03T02:35:27.983Z,102192.06
2023-05-03T02:38:14.753Z,102190.31
2023-05-03T02:41:01.582Z,102192.94
2023-05-03T02:43:49.869Z,102192.94
2023-05-03T02:46:36.808Z,102191.19
2023-05-03T02:49:24.835Z,102200.81
2023-05-03T02:52:11.851Z,102195.53
2023-05-03T02:54:58.707Z,102208.75
2023-05-03T02:57:45.460Z,102201.69
2023-05-03T03:00:35.330Z,102213.97
2023-05-03T03:03:22.265Z,102206.94
2023-05-03T03:06:11.363Z,102210.47
2023-05-03T03:08:58.571Z,102211.28
2023-05-03T03:11:45.433Z,102209.47
2023-05-03T03:14:33.247Z,102217.41
2023-05-03T03:17:19.898Z,102213.84
2023-05-03T03:20:07.650Z,102218.19
2023-05-03T03:22:56.491Z,102214.75
2023-05-03T03:25:43.346Z,102220.88
2023-05-03T03:28:29.976Z,102220.88
2023-05-03T03:31:22.786Z,102234.84
2023-05-03T03:34:09.645Z,102229.50
2023-05-03T03:36:56.908Z,102226.81
2023-05-03T03:39:49.191Z,102234.66
2023-05-03T03:42:35.963Z,102235.50
2023-05-03T03:45:23.834Z,102238.06
2023-05-03T03:48:10.468Z,102233.69
2023-05-03T03:50:57.450Z,102236.34
2023-05-03T03:53:51.122Z,102239.91
2023-05-03T03:56:39.222Z,102242.56
2023-05-03T03:59:26.446Z,102244.41
2023-05-03T04:02:13.460Z,102245.22
2023-05-03T04:05:00.281Z,102247.91
2023-05-03T04:07:47.096Z,102245.19
2023-05-03T04:10:36.001Z,102246.84
2023-05-03T04:13:24.388Z,102253.94
2023-05-03T04:16:13.237Z,102251.44
2023-05-03T04:19:01.606Z,102259.34
2023-05-03T04:21:49.210Z,102260.28
2023-05-03T04:24:40.757Z,102261.22
2023-05-03T04:27:30.054Z,102269.19
2023-05-03T04:30:18.600Z,102271.09
2023-05-03T04:33:10.542Z,102206.81
2023-05-03T04:35:58.514Z,102279.13
2023-05-03T04:38:45.841Z,102271.28
2023-05-03T04:41:33.433Z,102272.19
2023-05-03T04:44:21.300Z,102283.63
2023-05-03T04:47:11.903Z,102280.16
2023-05-03T04:50:00.858Z,102283.69
2023-05-03T04:52:48.161Z,102279.31
2023-05-03T04:55:35.266Z,102280.19
2023-05-03T04:58:24.227Z,102279.28
2023-05-03T05:01:11.166Z,102286.25
2023-05-03T05:03:59.639Z,102280.97
2023-05-03T05:06:54.744Z,102280.84
2023-05-03T05:09:46.080Z,102283.06
2023-05-03T05:12:32.925Z,102285.75
2023-05-03T05:15:22.656Z,102270.88
2023-05-03T05:18:09.379Z,102279.00
2023-05-03T05:20:59.527Z,102288.38
2023-05-03T05:23:47.292Z,102287.03
2023-05-03T05:26:34.230Z,102280.88
2023-05-03T05:29:20.925Z,102214.13
2023-05-03T05:32:07.677Z,102295.94
2023-05-03T05:34:55.710Z,102298.53
2023-05-03T05:37:46.436Z,102302.38
2023-05-03T05:40:34.116Z,102299.00
2023-05-03T05:43:21.290Z,102297.91
2023-05-03T05:46:09.597Z,102305.22
2023-05-03T05:48:56.666Z,102302.59
2023-05-03T05:51:43.341Z,102302.31
2023-05-03T05:54:32.043Z,102312.22
2023-05-03T05:57:19.797Z,102319.78
2023-05-03T06:00:14.649Z,102320.84
2023-05-03T06:03:02.738Z,102327.25
2023-05-03T06:05:49.938Z,102320.09
2023-05-03T06:08:36.835Z,102326.13
2023-05-03T06:11:26.808Z,102326.50
2023-05-03T06:14:15.361Z,102331.41
2023-05-03T06:17:02.212Z,102328.13
2023-05-03T06:19:49.482Z,102328.53
2023-05-03T06:22:37.903Z,102329.09
2023-05-03T06:25:25.172Z,102332.31
2023-05-03T06:28:13.359Z,102329.25
2023-05-03T06:31:00.228Z,102336.06
2023-05-03T06:33:48.033Z,102340.38
2023-05-03T06:36:35.685Z,102339.03
2023-05-03T06:39:23.214Z,102335.69
2023-05-03T06:42:10.555Z,102337.31
2023-05-03T06:45:01.348Z,102333.94
2023-05-03T06:47:48.895Z,102337.72
2023-05-03T06:50:36.480Z,102340.16
2023-05-03T06:53:23.262Z,102332.19
2023-05-03T06:56:10.084Z,102332.63
2023-05-03T06:58:56.938Z,102333.72
2023-05-03T07:01:45.034Z,102333.69
2023-05-03T07:04:31.813Z,102334.13
2023-05-03T07:07:18.887Z,102331.22
2023-05-03T07:10:06.182Z,102341.03
2023-05-03T07:12:53.212Z,102338.31
2023-05-03T07:15:40.174Z,102336.59
2023-05-03T07:18:28.400Z,102342.56
2023-05-03T07:21:15.572Z,102340.75
2023-05-03T07:24:02.495Z,102339.16
2023-05-03T07:26:49.267Z,102337.69
2023-05-03T07:29:36.471Z,102338.16
2023-05-03T07:32:23.306Z,102332.69
2023-05-03T07:35:11.684Z,102341.44
2023-05-03T07:37:58.301Z,102337.63
2023-05-03T07:40:45.675Z,102340.09
2023-05-03T07:43:32.438Z,102336.91
2023-05-03T07:46:19.219Z,102332.28
2023-05-03T07:49:07.952Z,102344.94
2023-05-03T07:51:55.776Z,102334.88
2023-05-03T07:54:43.786Z,102335.34
2023-05-03T07:57:31.198Z,102329.88
2023-05-03T08:00:20.232Z,102326.16
2023-05-03T08:03:07.392Z,102327.53
2023-05-03T08:05:53.862Z,102337.47
2023-05-03T08:08:42.795Z,102338.41
2023-05-03T08:11:29.837Z,102330.00
2023-05-03T08:14:17.136Z,102328.25
2023-05-03T08:17:04.863Z,102328.88
2023-05-03T08:19:52.057Z,102319.53
2023-05-03T08:22:40.560Z,102322.69
2023-05-03T08:25:28.604Z,102324.34
2023-05-03T08:28:15.270Z,102324.91
2023-05-03T08:31:03.771Z,102332.06
2023-05-03T08:33:50.892Z,102325.81
2023-05-03T08:36:38.293Z,102325.00
2023-05-03T08:39:26.247Z,102327.00
2023-05-03T08:42:14.019Z,102332.03
2023-05-03T08:45:00.775Z,102328.84
2023-05-03T08:47:47.338Z,102324.91
2023-05-03T08:50:42.055Z,102314.88
2023-05-03T08:53:28.678Z,102324.06
2023-05-03T08:56:22.466Z,102327.78
2023-05-03T08:59:11.768Z,102318.63
2023-05-03T09:01:58.555Z,102322.63
2023-05-03T09:04:46.550Z,102317.47
2023-05-03T09:07:37.716Z,102321.41
2023-05-03T09:10:24.648Z,102283.16
2023-05-03T09:13:12.157Z,102321.09
2023-05-03T09:16:00.296Z,102318.22
2023-05-03T09:18:57.910Z,102331.81
2023-05-03T09:21:47.208Z,102327.41
2023-05-03T09:24:34.262Z,102329.03
2023-05-03T09:27:21.584Z,102331.00
2023-05-03T09:30:26.879Z,102334.00
2023-05-03T09:33:20.526Z,102290.41
2023-05-03T09:36:07.824Z,102337.38
2023-05-03T09:38:56.099Z,102339.53
2023-05-03T09:41:42.654Z,102330.38
2023-05-03T09:44:42.943Z,102315.13
2023-05-03T09:47:32.226Z,102328.69
2023-05-03T09:50:20.666Z,102319.78
2023-05-03T09:53:08.463Z,102328.25
2023-05-03T09:55:56.254Z,102319.09
2023-05-03T09:58:44.016Z,102311.50
2023-05-03T10:01:32.095Z,102319.38
2023-05-03T10:04:22.181Z,102315.69
2023-05-03T10:07:14.330Z,102313.75
2023-05-03T10:10:01.462Z,102307.63
2023-05-03T10:12:49.671Z,102311.69
2023-05-03T10:15:38.732Z,102311.56
2023-05-03T10:18:30.178Z,102306.03
2023-05-03T10:21:32.162Z,102304.81
2023-05-03T10:24:20.295Z,102304.19
2023-05-03T10:27:08.538Z,102299.38
2023-05-03T10:29:56.297Z,102311.94
2023-05-03T10:32:44.647Z,102319.38
2023-05-03T10:35:31.393Z,102310.13
2023-05-03T10:38:22.094Z,102311.34
2023-05-03T10:41:10.448Z,102315.09
2023-05-03T10:43:58.088Z,102316.03
2023-05-03T10:46:45.274Z,102308.13
2023-05-03T10:49:32.128Z,102302.88
2023-05-03T10:52:47.101Z,102301.00
2023-05-03T10:55:34.790Z,102304.38
2023-05-03T10:58:23.197Z,102296.22
2023-05-03T11:01:11.716Z,102303.19
2023-05-03T11:04:05.826Z,102308.72
2023-05-03T11:06:56.923Z,102295.38
2023-05-03T11:09:44.551Z,102296.84
2023-05-03T11:12:32.367Z,102289.78
2023-05-03T11:15:21.292Z,102290.31
2023-05-03T11:18:08.770Z,102293.22
2023-05-03T11:20:56.075Z,102282.72
2023-05-03T11:23:43.849Z,102286.34
2023-05-03T11:26:30.427Z,102285.81
2023-05-03T11:29:17.810Z,102248.88
2023-05-03T11:32:09.054Z,102274.63
2023-05-03T11:34:56.172Z,102284.13
2023-05-03T11:37:44.344Z,102280.22
2023-05-03T11:40:31.633Z,102270.50
2023-05-03T11:43:18.166Z,102277.56
2023-05-03T11:46:05.900Z,102272.09
2023-05-03T11:48:54.268Z,102271.84
2023-05-03T11:51:41.647Z,102263.91
2023-05-03T11:54:28.468Z,102266.53
2023-05-03T11:57:16.261Z,102265.16
2023-05-03T12:00:14.571Z,102266.72
2023-05-03T12:03:01.468Z,102276.38
2023-05-03T12:05:53.196Z,102273.19
2023-05-03T12:08:43.229Z,102274.66
2023-05-03T12:11:33.399Z,102259.19
2023-05-03T12:14:22.328Z,102259.06
2023-05-03T12:17:11.294Z,102260.97
2023-05-03T12:21:05.167Z,102261.22
2023-05-03T12:23:26.671Z,102259.78
2023-05-03T12:26:15.062Z,102240.16
2023-05-03T12:29:02.591Z,102264.66
2023-05-03T12:31:52.920Z,102247.41
2023-05-03T12:34:41.921Z,102249.19
2023-05-03T12:37:33.283Z,102243.06
2023-05-03T12:40:33.568Z,102241.63
2023-05-03T12:43:22.390Z,102246.31
2023-05-03T12:49:07.733Z,102247.31
2023-05-03T12:52:23.063Z,102245.41
2023-05-03T12:55:11.152Z,102235.94
2023-05-03T12:58:26.820Z,102235.97
2023-05-03T13:04:11.762Z,102232.16
2023-05-03T13:07:03.107Z,102229.78
2023-05-03T13:12:39.539Z,102229.22
2023-05-03T13:15:27.799Z,102220.34
2023-05-03T13:18:14.950Z,102236.09
2023-05-03T13:21:02.213Z,102229.22
2023-05-03T13:23:49.585Z,102227.53
2023-05-03T13:26:36.708Z,102232.97
2023-05-03T13:29:24.273Z,102217.13
2023-05-03T13:32:12.913Z,102212.50
2023-05-03T13:34:59.724Z,102206.03
2023-05-03T13:37:46.546Z,102207.84
2023-05-03T13:40:33.221Z,102204.38
2023-05-03T13:43:19.967Z,102202.31
2023-05-03T13:46:06.859Z,102192.59
2023-05-03T13:48:56.583Z,102194.09
2023-05-03T13:51:50.153Z,102150.69
2023-05-03T13:54:38.233Z,102188.56
2023-05-03T13:57:24.619Z,102171.28
2023-05-03T14:00:13.287Z,102187.09
2023-05-03T14:03:00.026Z,102174.69
2023-05-03T14:05:48.387Z,102177.94
2023-05-03T14:08:35.173Z,102177.44
2023-05-03T14:11:22.866Z,102175.13
2023-05-03T14:14:09.384Z,102172.41
2023-05-03T14:16:56.377Z,102167.84
2023-05-03T14:19:42.813Z,102164.28
2023-05-03T14:22:31.045Z,102163.72
2023-05-03T14:25:17.790Z,102160.44
2023-05-03T14:28:05.343Z,102165.66
2023-05-03T14:30:52.608Z,102168.22
2023-05-03T14:33:39.258Z,102170.09
2023-05-03T14:36:27.063Z,102155.66
2023-05-03T14:39:16.509Z,102160.72
2023-05-03T14:42:03.458Z,102126.97
2023-05-03T14:44:50.442Z,102165.50
2023-05-03T14:47:37.411Z,102164.41
2023-05-03T14:50:24.317Z,102155.72
2023-05-03T14:53:11.300Z,102160.56
2023-05-03T14:55:59.271Z,102163.59
2023-05-03T14:58:46.170Z,102157.22
2023-05-03T15:01:32.857Z,102161.25
2023-05-03T15:04:19.519Z,102165.47
2023-05-03T15:07:06.747Z,102156.94
2023-05-03T15:09:53.619Z,102165.28
2023-05-03T15:12:42.314Z,102154.13
2023-05-03T15:15:29.010Z,102153.69
2023-05-03T15:18:18.768Z,102162.44
2023-05-03T15:21:07.404Z,102146.63
2023-05-03T15:23:54.443Z,102148.56
2023-05-03T15:26:41.465Z,102148.03
2023-05-03T15:29:29.486Z,102142.97
2023-05-03T15:32:16.447Z,102144.84
2023-05-03T15:35:03.134Z,102153.03
2023-05-03T15:37:49.873Z,102141.28
2023-05-03T15:40:36.765Z,102146.59
2023-05-03T15:43:23.514Z,102143.84
2023-05-03T15:46:11.842Z,102149.97
2023-05-03T15:48:58.634Z,102142.97
2023-05-03T15:51:45.434Z,102144.72
2023-05-03T15:54:32.180Z,102140.19
2023-05-03T15:57:19.740Z,102144.28
2023-05-03T16:00:13.415Z,102133.84
2023-05-03T16:03:01.795Z,102140.25
2023-05-03T16:05:48.798Z,102119.53
2023-05-03T16:08:35.576Z,102085.84
2023-05-03T16:11:22.567Z,102136.63
2023-05-03T16:14:09.732Z,102136.16
2023-05-03T16:16:56.372Z,102134.19
2023-05-03T16:19:44.793Z,102127.09
2023-05-03T16:22:31.630Z,102061.00
2023-05-03T16:25:19.009Z,102126.88
2023-05-03T16:28:05.648Z,102125.81
2023-05-03T16:30:52.138Z,102122.38
2023-05-03T16:33:38.971Z,102126.31
2023-05-03T16:36:28.092Z,102124.88
2023-05-03T16:39:15.742Z,102122.88
2023-05-03T16:42:02.864Z,102125.19
2023-05-03T16:44:49.724Z,102119.66
2023-05-03T16:47:36.506Z,102114.91
2023-05-03T16:50:23.383Z,102123.41
2023-05-03T16:53:13.226Z,102117.47
2023-05-03T16:56:00.004Z,102119.44
2023-05-03T16:58:47.672Z,102115.38
2023-05-03T17:01:34.477Z,102116.75
2023-05-03T17:04:21.399Z,102113.44
2023-05-03T17:07:07.864Z,102113.72
2023-05-03T17:09:56.045Z,102108.19
2023-05-03T17:12:42.831Z,102114.56
2023-05-03T17:15:29.877Z,102117.34
2023-05-03T17:18:16.665Z,102111.84
2023-05-03T17:21:04.747Z,102119.06
2023-05-03T17:23:51.677Z,102116.44
2023-05-03T17:26:40.228Z,102119.34
2023-05-03T17:29:27.517Z,102115.34
2023-05-03T17:32:14.905Z,102114.34
2023-05-03T17:35:01.693Z,102118.38
2023-05-03T17:37:48.450Z,102112.25
2023-05-03T17:40:36.725Z,102118.38
2023-05-03T17:43:24.477Z,102111.75
2023-05-03T17:46:14.653Z,102102.13
2023-05-03T17:49:01.665Z,102110.19
2023-05-03T17:51:48.929Z,102119.16
2023-05-03T17:54:36.459Z,102116.34
2023-05-03T17:57:22.884Z,102124.81
2023-05-03T18:00:15.519Z,102124.41
2023-05-03T18:03:08.686Z,102119.50
2023-05-03T18:05:55.880Z,102124.38
2023-05-03T18:08:42.811Z,102125.63
2023-05-03T18:11:30.949Z,102132.09
2023-05-03T18:14:18.204Z,102128.25
2023-05-03T18:17:07.524Z,102126.53
2023-05-03T18:19:53.999Z,102123.31
2023-05-03T18:22:40.712Z,102130.00
2023-05-03T18:25:27.600Z,102132.88
2023-05-03T18:28:14.360Z,102129.78
2023-05-03T18:31:01.186Z,102131.16
2023-05-03T18:33:49.531Z,102136.59
2023-05-03T18:36:36.317Z,102134.16
2023-05-03T18:39:23.289Z,102140.59
2023-05-03T18:42:10.171Z,102139.84
2023-05-03T18:44:56.966Z,102140.25
2023-05-03T18:47:43.555Z,102138.91
2023-05-03T18:50:33.642Z,102144.06
2023-05-03T18:53:20.903Z,102139.50
2023-05-03T18:56:09.248Z,102144.75
2023-05-03T18:58:56.363Z,102159.97
2023-05-03T19:01:44.685Z,102157.91
2023-05-03T19:04:31.595Z,102160.03
2023-05-03T19:07:21.497Z,102160.25
2023-05-03T19:10:09.932Z,102162.88
2023-05-03T19:12:58.252Z,102158.72
2023-05-03T19:15:45.727Z,102162.53
2023-05-03T19:18:34.294Z,102159.91
2023-05-03T19:21:22.412Z,102161.81
2023-05-03T19:24:15.600Z,102166.53
2023-05-03T19:27:02.312Z,102169.28
2023-05-03T19:29:49.045Z,102174.78
2023-05-03T19:35:40.643Z,102167.00
2023-05-03T19:38:27.560Z,102165.28
2023-05-03T19:41:15.504Z,102164.38
2023-05-03T19:44:02.428Z,102168.97
2023-05-03T19:46:52.705Z,102157.69
2023-05-03T19:49:40.520Z,102164.59
2023-05-03T19:52:27.393Z,102165.31
2023-05-03T19:55:14.501Z,102171.78
2023-05-03T19:58:02.356Z,102165.91
2023-05-03T20:00:49.054Z,102164.16
2023-05-03T20:03:35.933Z,102166.91
2023-05-03T20:06:22.994Z,102173.06
2023-05-03T20:09:09.669Z,102159.03
2023-05-03T20:11:58.844Z,102170.78
2023-05-03T20:14:47.242Z,102175.28
2023-05-03T20:17:33.803Z,102168.25
2023-05-03T20:20:20.577Z,102170.03
2023-05-03T20:23:07.279Z,102169.28
2023-05-03T20:25:54.221Z,102175.53
2023-05-03T20:28:40.754Z,102174.66
2023-05-03T20:31:29.172Z,102170.22
2023-05-03T20:34:15.994Z,102172.91
2023-05-03T20:37:03.594Z,102173.84
2023-05-03T20:39:50.195Z,102169.47
2023-05-03T20:42:36.935Z,102180.81
2023-05-03T20:45:23.637Z,102174.84
2023-05-03T20:48:11.817Z,102172.31
2023-05-03T20:51:00.861Z,102177.66
2023-05-03T20:53:47.460Z,102175.91
2023-05-03T20:56:34.471Z,102179.44
2023-05-03T20:59:21.040Z,102172.47
2023-05-03T21:02:07.855Z,102177.75
2023-05-03T21:04:55.913Z,102183.97
2023-05-03T21:07:42.709Z,102183.13
2023-05-03T21:10:29.401Z,102179.53
2023-05-03T21:13:16.197Z,102191.03
2023-05-03T21:16:03.026Z,102181.38
2023-05-03T21:18:49.727Z,102188.41
2023-05-03T21:21:38.163Z,102184.03
2023-05-03T21:24:27.522Z,102186.72
2023-05-03T21:27:14.400Z,102194.66
2023-05-03T21:30:01.830Z,102195.53
2023-05-03T21:32:49.753Z,102195.53
2023-05-03T21:35:36.271Z,102194.66
2023-05-03T21:38:24.430Z,102194.66
2023-05-03T21:41:11.471Z,102188.53
2023-05-03T21:43:58.349Z,102200.00
2023-05-03T21:46:45.422Z,102202.63
2023-05-03T21:49:32.301Z,102198.22
2023-05-03T21:52:19.013Z,102207.03
2023-05-03T21:55:08.506Z,102196.50
2023-05-03T21:57:58.278Z,102192.09
2023-05-03T22:00:47.113Z,102199.13
2023-05-03T22:03:38.341Z,102200.91
2023-05-03T22:06:28.452Z,102208.81
2023-05-03T22:09:15.403Z,102207.94
2023-05-03T22:12:19.133Z,102198.25
2023-05-03T22:15:10.896Z,102204.44
2023-05-03T22:17:57.978Z,102192.16
2023-05-03T22:20:44.328Z,102200.06
2023-05-03T22:23:31.628Z,102196.56
2023-05-03T22:26:18.445Z,102193.91
2023-05-03T22:29:06.598Z,102159.59
2023-05-03T22:31:53.673Z,102201.81
2023-05-03T22:34:40.586Z,102207.09
2023-05-03T22:37:27.218Z,102201.84
2023-05-03T22:40:20.151Z,102200.06
2023-05-03T22:43:08.102Z,102195.66
2023-05-03T22:45:56.356Z,102205.34
2023-05-03T22:48:43.110Z,102200.94
2023-05-03T22:51:29.743Z,102192.13
2023-05-03T22:54:16.496Z,102185.94
2023-05-03T22:57:03.384Z,102195.63
2023-05-03T22:59:50.058Z,102192.97
2023-05-03T23:02:38.206Z,102192.09
2023-05-03T23:05:24.794Z,102196.50
2023-05-03T23:08:11.655Z,102205.28
2023-05-03T23:10:59.594Z,102188.56
2023-05-03T23:13:46.467Z,102194.72
2023-05-03T23:16:33.799Z,102162.16
2023-05-03T23:19:21.887Z,102192.94
2023-05-03T23:22:09.254Z,102187.66
2023-05-03T23:24:55.798Z,102187.66
2023-05-03T23:27:42.541Z,102189.44
2023-05-03T23:30:29.813Z,102195.56
2023-05-03T23:33:17.230Z,102185.91
2023-05-03T23:36:06.503Z,102185.88
2023-05-03T23:38:53.242Z,102184.13
2023-05-03T23:41:39.791Z,102186.72
2023-05-03T23:44:38.513Z,102186.66
2023-05-03T23:47:33.524Z,102175.28
2023-05-03T23:50:20.491Z,102172.63
2023-05-03T23:53:08.703Z,102187.56
2023-05-03T23:55:55.258Z,102184.03
2023-05-03T23:58:42.050Z,102181.38
